Time;durP1;ratioP1;P1;durP2;ratioP2;P2;SDS_P1;SDS_P2;PMS_P1;PMS_P2;Temp;Humidity;BMP_temperature;BMP_pressure;BME280_temperature;BME280_humidity;BME280_pressure;Samples;Min_cycle;Max_cycle;Signal;HPM_P1;HPM_P2
2023/01/08 00:01:42;;;;;;;4.88;3.10;;;;;;;8.67;97.47;100244.44;5014774;28;20037;-71
2023/01/08 00:04:07;;;;;;;5.00;3.03;;;;;;;8.66;97.16;100233.69;5025652;28;20040;-71
2023/01/08 00:06:33;;;;;;;6.70;2.70;;;;;;;8.66;97.53;100233.69;5026169;28;20045;-71
2023/01/08 00:08:58;;;;;;;5.68;3.00;;;;;;;8.68;97.42;100240.75;5024904;28;20441;-75
2023/01/08 00:11:24;;;;;;;5.38;2.92;;;;;;;8.72;97.60;100243.22;5026800;28;20064;-72
2023/01/08 00:13:49;;;;;;;5.25;3.10;;;;;;;8.74;97.33;100241.28;5028389;28;20029;-71
2023/01/08 00:16:17;;;;;;;6.60;2.95;;;;;;;8.74;97.50;100246.69;5042557;28;20123;-71
2023/01/08 00:18:44;;;;;;;4.90;3.03;;;;;;;8.77;97.04;100239.22;5033328;28;20124;-74
2023/01/08 00:21:10;;;;;;;5.47;3.13;;;;;;;8.80;96.46;100244.38;5027835;28;20048;-71
2023/01/08 00:23:35;;;;;;;5.10;2.92;;;;;;;8.78;96.74;100229.22;5028380;28;20113;-71
2023/01/08 00:26:03;;;;;;;5.00;3.30;;;;;;;8.78;97.01;100231.94;5031379;28;20029;-71
2023/01/08 00:28:28;;;;;;;4.65;2.65;;;;;;;8.73;97.00;100226.00;5049090;28;20532;-75
2023/01/08 00:30:54;;;;;;;4.85;3.17;;;;;;;8.73;96.94;100223.28;5033320;28;20195;-75
2023/01/08 00:33:19;;;;;;;6.40;2.85;;;;;;;8.69;96.90;100211.78;5034463;28;20052;-71
2023/01/08 00:35:44;;;;;;;5.55;2.78;;;;;;;8.66;96.80;100206.59;5028658;28;20079;-71
2023/01/08 00:38:10;;;;;;;6.53;3.42;;;;;;;8.65;97.00;100202.16;5029420;28;20419;-71
2023/01/08 00:40:37;;;;;;;5.53;3.03;;;;;;;8.64;97.06;100206.72;5028962;28;20046;-72
2023/01/08 00:43:03;;;;;;;4.18;2.65;;;;;;;8.65;97.38;100204.84;5029289;28;20041;-71
2023/01/08 00:45:28;;;;;;;3.63;2.28;;;;;;;8.64;97.67;100200.41;5028038;28;20052;-75
2023/01/08 00:47:54;;;;;;;3.53;3.05;;;;;;;8.63;97.50;100187.84;5036197;28;20047;-72
2023/01/08 00:50:19;;;;;;;6.03;3.00;;;;;;;8.66;97.75;100196.59;5047432;28;20032;-72
2023/01/08 00:52:44;;;;;;;7.35;3.00;;;;;;;8.65;97.43;100178.59;5037074;28;20536;-71
2023/01/08 00:55:10;;;;;;;5.60;3.38;;;;;;;8.68;98.01;100175.66;5029427;28;20364;-72
2023/01/08 00:57:37;;;;;;;8.52;3.10;;;;;;;8.72;97.40;100179.03;5028578;28;20087;-73
2023/01/08 01:00:05;;;;;;;7.35;2.80;;;;;;;8.73;97.81;100182.59;5029488;28;20033;-71
2023/01/08 01:02:31;;;;;;;8.02;2.95;;;;;;;8.72;97.76;100188.97;5029217;28;20044;-71
2023/01/08 01:04:56;;;;;;;6.72;3.67;;;;;;;8.68;97.96;100182.94;5029168;28;20506;-72
2023/01/08 01:07:22;;;;;;;6.05;3.10;;;;;;;8.72;97.64;100191.69;5026914;28;20443;-71
2023/01/08 01:09:47;;;;;;;6.00;3.67;;;;;;;8.72;97.62;100179.03;5028349;28;20072;-71
2023/01/08 01:12:12;;;;;;;6.63;2.88;;;;;;;8.75;97.50;100178.78;5028306;28;20496;-74
2023/01/08 01:14:38;;;;;;;6.90;3.17;;;;;;;8.77;97.63;100168.69;5026295;28;20052;-71
2023/01/08 01:17:03;;;;;;;5.90;3.90;;;;;;;8.78;97.16;100166.84;5046109;28;20055;-71
2023/01/08 01:19:29;;;;;;;5.47;3.17;;;;;;;8.76;97.43;100171.50;5026864;28;20033;-74
2023/01/08 01:21:54;;;;;;;5.70;3.25;;;;;;;8.75;97.57;100165.22;5028580;28;20100;-71
2023/01/08 01:24:22;;;;;;;5.00;3.00;;;;;;;8.73;97.54;100167.19;5026339;28;20132;-71
2023/01/08 01:26:48;;;;;;;5.38;3.97;;;;;;;8.70;97.63;100170.13;5036797;28;20045;-71
2023/01/08 01:29:13;;;;;;;6.82;3.70;;;;;;;8.68;97.78;100161.25;5046499;28;20480;-72
2023/01/08 01:31:38;;;;;;;8.15;3.45;;;;;;;8.69;97.91;100155.69;5029231;28;20064;-71
2023/01/08 01:34:04;;;;;;;5.07;3.28;;;;;;;8.71;97.56;100154.72;5030693;28;20036;-71
2023/01/08 01:36:29;;;;;;;6.65;3.08;;;;;;;8.69;97.79;100146.72;5027132;28;20099;-71
2023/01/08 01:38:56;;;;;;;9.38;3.25;;;;;;;8.74;97.86;100158.06;5027953;28;20117;-71
2023/01/08 01:41:27;;;;;;;6.13;3.10;;;;;;;8.75;98.14;100159.78;5028123;28;20069;-71
2023/01/08 01:43:54;;;;;;;6.35;3.33;;;;;;;8.73;97.90;100161.75;5027635;28;20129;-72
2023/01/08 01:46:38;;;;;;;6.10;3.83;;;;;;;8.78;97.60;100174.97;5026248;28;20033;-71
2023/01/08 01:49:13;;;;;;;9.52;3.85;;;;;;;8.79;97.34;100171.28;5027373;28;20048;-71
2023/01/08 01:51:45;;;;;;;8.88;3.35;;;;;;;8.78;97.47;100174.97;5027712;28;20041;-71
2023/01/08 01:54:12;;;;;;;5.97;2.90;;;;;;;8.82;97.94;100184.63;5026533;28;20029;-71
2023/01/08 01:56:37;;;;;;;7.47;3.00;;;;;;;8.82;97.71;100185.47;5026654;28;20045;-72
2023/01/08 01:59:03;;;;;;;8.55;2.72;;;;;;;8.84;97.84;100180.78;5027318;28;20041;-72
2023/01/08 02:01:30;;;;;;;12.63;3.45;;;;;;;8.82;97.37;100182.75;5027678;28;20029;-74
2023/01/08 02:03:56;;;;;;;6.95;2.75;;;;;;;8.82;96.56;100187.31;5042694;28;20565;-73
2023/01/08 02:06:35;;;;;;;5.70;2.70;;;;;;;8.79;97.35;100191.13;5047332;28;20132;-71
2023/01/08 02:09:05;;;;;;;3.92;2.25;;;;;;;8.75;96.57;100195.03;5030603;28;20033;-71
2023/01/08 02:11:40;;;;;;;2.95;1.75;;;;;;;8.69;95.53;100184.66;5027427;28;20033;-72
2023/01/08 02:14:10;;;;;;;3.15;1.80;;;;;;;8.60;94.74;100163.66;5025923;28;20120;-71
2023/01/08 02:16:47;;;;;;;2.40;1.38;;;;;;;8.53;94.15;100173.22;5027475;28;20361;-71
2023/01/08 02:19:35;;;;;;;3.60;1.77;;;;;;;8.43;95.42;100151.38;5043882;28;20028;-71
2023/01/08 02:22:43;;;;;;;4.55;1.40;;;;;;;8.33;94.72;100153.88;5029111;28;20047;-71
2023/01/08 02:25:34;;;;;;;4.20;1.27;;;;;;;8.24;95.32;100148.25;5039724;28;20151;-71
2023/01/08 02:28:03;;;;;;;4.30;1.10;;;;;;;8.12;95.71;100155.47;5041141;28;20473;-71
2023/01/08 02:30:29;;;;;;;6.60;1.30;;;;;;;8.08;95.86;100156.66;5033067;28;20045;-72
2023/01/08 02:32:54;;;;;;;3.75;1.00;;;;;;;8.03;95.80;100150.72;5039151;28;20452;-71
2023/01/08 02:35:20;;;;;;;4.00;1.10;;;;;;;8.00;95.42;100159.94;5008691;28;20128;-71
2023/01/08 02:37:45;;;;;;;4.18;1.05;;;;;;;7.96;95.50;100150.28;5024764;28;20076;-71
2023/01/08 02:40:20;;;;;;;4.72;1.10;;;;;;;7.91;95.69;100153.34;5025840;28;20404;-71
2023/01/08 02:42:57;;;;;;;2.60;0.75;;;;;;;7.89;96.23;100162.56;5026820;28;20041;-72
2023/01/08 02:45:37;;;;;;;3.40;1.00;;;;;;;7.85;95.69;100158.34;5033247;28;20102;-71
2023/01/08 02:48:11;;;;;;;6.07;1.35;;;;;;;7.83;96.15;100163.88;5020995;28;20033;-71
2023/01/08 02:50:43;;;;;;;4.47;1.52;;;;;;;7.79;96.67;100156.09;5026519;28;20060;-71
2023/01/08 02:53:11;;;;;;;3.57;1.23;;;;;;;7.76;96.73;100150.88;5027677;28;20416;-71
2023/01/08 02:55:39;;;;;;;3.20;0.98;;;;;;;7.73;97.23;100154.66;5027059;28;20306;-71
2023/01/08 02:58:05;;;;;;;3.25;1.27;;;;;;;7.70;97.72;100157.59;5025937;28;20033;-71
2023/01/08 03:00:31;;;;;;;3.35;1.17;;;;;;;7.70;98.85;100154.03;5008734;28;20037;-71
2023/01/08 03:03:05;;;;;;;9.02;1.55;;;;;;;7.65;98.71;100140.81;5026639;28;20113;-73
2023/01/08 03:05:32;;;;;;;4.82;1.20;;;;;;;7.59;99.11;100144.81;5008857;28;20045;-71
2023/01/08 03:07:57;;;;;;;4.25;1.20;;;;;;;7.56;99.69;100128.81;5026169;28;20669;-72
2023/01/08 03:10:27;;;;;;;2.30;1.20;;;;;;;7.56;99.82;100138.78;5025886;28;20546;-71
2023/01/08 03:12:58;;;;;;;2.03;0.90;;;;;;;7.54;100.00;100148.81;5026558;28;20476;-71
2023/01/08 03:15:30;;;;;;;3.00;1.00;;;;;;;7.51;99.91;100146.34;5027369;28;20033;-71
2023/01/08 03:17:59;;;;;;;4.07;1.05;;;;;;;7.48;100.00;100142.03;5026280;28;20490;-72
2023/01/08 03:20:25;;;;;;;2.78;1.08;;;;;;;7.44;100.00;100137.78;5025223;28;20046;-71
2023/01/08 03:22:55;;;;;;;7.10;1.15;;;;;;;7.43;100.00;100138.78;5025607;28;20349;-71
2023/01/08 03:25:25;;;;;;;7.43;1.02;;;;;;;7.40;100.00;100142.53;5025074;28;20064;-71
2023/01/08 03:27:56;;;;;;;5.93;1.10;;;;;;;7.40;100.00;100147.97;5026440;28;20041;-71
2023/01/08 03:30:23;;;;;;;2.83;1.02;;;;;;;7.38;100.00;100141.81;5025973;28;20434;-71
2023/01/08 03:32:50;;;;;;;3.83;0.90;;;;;;;7.38;100.00;100139.09;5009157;28;20025;-71
2023/01/08 03:35:20;;;;;;;5.35;1.33;;;;;;;7.36;100.00;100130.22;5025403;28;20092;-71
2023/01/08 03:37:55;;;;;;;3.92;0.93;;;;;;;7.36;100.00;100129.34;5025316;28;20033;-71
2023/01/08 03:40:29;;;;;;;3.95;1.20;;;;;;;7.34;100.00;100132.16;5025104;28;20062;-73
2023/01/08 03:42:56;;;;;;;2.95;0.93;;;;;;;7.31;100.00;100126.97;5027008;28;20519;-71
2023/01/08 03:45:24;;;;;;;3.17;0.80;;;;;;;7.31;100.00;100129.66;5025793;28;20033;-71
2023/01/08 03:47:51;;;;;;;3.85;1.33;;;;;;;7.29;100.00;100125.34;5033078;28;20373;-71
2023/01/08 03:50:21;;;;;;;4.03;1.02;;;;;;;7.26;100.00;100131.84;5050040;28;20040;-72
2023/01/08 03:52:47;;;;;;;3.38;1.20;;;;;;;7.27;100.00;100128.16;5032651;28;20400;-71
2023/01/08 03:55:12;;;;;;;5.20;1.33;;;;;;;7.27;100.00;100114.63;5028917;28;20033;-71
2023/01/08 03:57:37;;;;;;;5.60;1.42;;;;;;;7.28;100.00;100110.97;5030116;28;20052;-71
2023/01/08 04:00:03;;;;;;;2.10;0.85;;;;;;;7.25;100.00;100122.00;5034032;28;20036;-71
2023/01/08 04:02:30;;;;;;;3.50;1.27;;;;;;;7.28;100.00;100119.09;5045112;28;20519;-71
2023/01/08 04:04:55;;;;;;;3.10;0.95;;;;;;;7.29;100.00;100112.69;5030445;28;20045;-72
2023/01/08 04:07:21;;;;;;;4.68;1.00;;;;;;;7.29;100.00;100111.84;5028278;28;20041;-73
2023/01/08 04:09:46;;;;;;;5.30;1.20;;;;;;;7.32;100.00;100108.88;5028793;28;20140;-72
2023/01/08 04:12:11;;;;;;;3.67;1.20;;;;;;;7.34;100.00;100106.97;5029416;28;20038;-72
2023/01/08 04:14:37;;;;;;;5.03;1.35;;;;;;;7.32;100.00;100098.97;5028161;28;20033;-71
2023/01/08 04:17:02;;;;;;;3.03;1.00;;;;;;;7.31;100.00;100085.50;5029963;28;20040;-71
2023/01/08 04:19:28;;;;;;;5.90;1.20;;;;;;;7.28;100.00;100089.31;5029535;28;20116;-75
2023/01/08 04:21:53;;;;;;;3.90;1.30;;;;;;;7.24;100.00;100095.91;5029751;28;20029;-71
2023/01/08 04:24:19;;;;;;;4.68;0.90;;;;;;;7.21;100.00;100103.38;5029428;28;20117;-71
2023/01/08 04:26:44;;;;;;;3.83;2.35;;;;;;;7.17;100.00;100113.53;5028125;28;20041;-71
2023/01/08 04:29:11;;;;;;;4.82;1.75;;;;;;;7.18;100.00;100101.78;5029734;28;20033;-71
2023/01/08 04:31:36;;;;;;;4.50;1.27;;;;;;;7.18;100.00;100099.06;5028357;28;20034;-71
2023/01/08 04:34:02;;;;;;;3.55;1.73;;;;;;;7.17;100.00;100091.91;5029126;28;20447;-73
2023/01/08 04:36:27;;;;;;;5.47;1.65;;;;;;;7.16;100.00;100093.75;5029748;28;20116;-71
2023/01/08 04:38:53;;;;;;;3.70;1.60;;;;;;;7.20;100.00;100083.59;5028004;28;20109;-72
2023/01/08 04:41:18;;;;;;;5.38;1.67;;;;;;;7.22;100.00;100083.47;5029392;28;20092;-71
2023/01/08 04:43:44;;;;;;;5.38;1.60;;;;;;;7.25;100.00;100086.81;5029098;28;20034;-71
2023/01/08 04:46:09;;;;;;;3.67;1.65;;;;;;;7.26;100.00;100082.28;5028346;28;20373;-71
2023/01/08 04:48:35;;;;;;;6.82;1.70;;;;;;;7.26;100.00;100075.03;5029247;28;20045;-72
2023/01/08 04:51:02;;;;;;;3.55;1.60;;;;;;;7.24;100.00;100078.81;5026798;28;20037;-72
2023/01/08 04:53:28;;;;;;;2.80;1.15;;;;;;;7.24;100.00;100084.25;5029842;28;20045;-74
2023/01/08 04:55:53;;;;;;;3.65;1.40;;;;;;;7.23;100.00;100082.47;5040140;28;20073;-71
2023/01/08 04:58:19;;;;;;;3.38;1.33;;;;;;;7.24;100.00;100086.94;5049020;28;20078;-71
2023/01/08 05:00:45;;;;;;;2.35;1.13;;;;;;;7.23;100.00;100094.19;5033634;28;20033;-74
2023/01/08 05:03:10;;;;;;;9.77;2.15;;;;;;;7.21;100.00;100093.41;5027335;28;20037;-71
2023/01/08 05:05:36;;;;;;;4.15;1.98;;;;;;;7.20;100.00;100080.00;5028334;28;20112;-71
2023/01/08 05:08:02;;;;;;;3.05;1.38;;;;;;;7.15;100.00;100080.34;5028938;28;20045;-74
2023/01/08 05:10:27;;;;;;;1.27;1.13;;;;;;;7.19;100.00;100089.13;5029369;28;20052;-71
2023/01/08 05:13:00;;;;;;;1.98;1.35;;;;;;;7.18;100.00;100090.06;5028765;28;20448;-71
2023/01/08 05:15:25;;;;;;;3.25;1.60;;;;;;;7.19;100.00;100089.13;5029747;28;20065;-71
2023/01/08 05:18:01;;;;;;;2.25;1.42;;;;;;;7.19;100.00;100089.13;5029490;28;20530;-71
2023/01/08 05:20:28;;;;;;;6.43;1.58;;;;;;;7.21;99.98;100089.84;5048334;28;20377;-71
2023/01/08 05:22:53;;;;;;;3.70;1.30;;;;;;;7.22;99.63;100086.16;5048682;28;20040;-71
2023/01/08 05:25:19;;;;;;;3.30;1.35;;;;;;;7.21;99.58;100092.56;5029131;28;20033;-73
2023/01/08 05:27:44;;;;;;;1.83;1.27;;;;;;;7.20;99.57;100077.31;5028499;28;20045;-73
2023/01/08 05:30:10;;;;;;;4.93;1.40;;;;;;;7.19;99.10;100072.88;5033339;28;20033;-71
2023/01/08 05:32:35;;;;;;;3.22;1.45;;;;;;;7.18;99.35;100072.03;5037395;28;20033;-71
2023/01/08 05:35:01;;;;;;;3.03;1.15;;;;;;;7.16;98.68;100074.81;5028103;28;20040;-71
2023/01/08 05:37:26;;;;;;;3.20;1.05;;;;;;;7.18;97.93;100060.31;5028527;28;20033;-71
2023/01/08 05:39:51;;;;;;;2.15;1.17;;;;;;;7.20;97.98;100058.38;5026678;28;20489;-71
2023/01/08 05:42:16;;;;;;;4.63;1.30;;;;;;;7.16;97.09;100055.88;5027985;28;20091;-72
2023/01/08 05:44:42;;;;;;;4.22;1.20;;;;;;;7.15;96.56;100064.09;5027760;28;20033;-71
2023/01/08 05:47:07;;;;;;;2.45;1.20;;;;;;;7.10;96.62;100068.97;5026591;28;20420;-75
2023/01/08 05:49:32;;;;;;;2.63;0.95;;;;;;;7.08;95.66;100073.63;5026389;28;20047;-72
2023/01/08 05:51:58;;;;;;;3.88;1.10;;;;;;;6.99;95.76;100055.34;5028316;28;20116;-74
2023/01/08 05:54:23;;;;;;;5.22;1.58;;;;;;;6.96;95.49;100058.28;5026811;28;20080;-71
2023/01/08 05:56:49;;;;;;;3.47;1.10;;;;;;;6.87;95.59;100060.63;5027797;28;20045;-71
2023/01/08 05:59:14;;;;;;;5.32;1.15;;;;;;;6.83;94.89;100069.06;5025828;28;20026;-71
2023/01/08 06:01:39;;;;;;;4.93;1.27;;;;;;;6.79;95.44;100071.13;5025960;28;20040;-71
2023/01/08 06:04:05;;;;;;;3.17;1.60;;;;;;;6.73;95.14;100079.66;5009571;28;20048;-71
2023/01/08 06:06:30;;;;;;;2.47;1.20;;;;;;;6.65;95.30;100068.50;5009783;28;20402;-71
2023/01/08 06:08:56;;;;;;;3.50;1.20;;;;;;;6.60;95.56;100076.91;5026624;28;20418;-71
2023/01/08 06:11:21;;;;;;;3.72;1.33;;;;;;;6.55;96.23;100084.47;5026269;28;20126;-71
2023/01/08 06:13:46;;;;;;;3.75;1.75;;;;;;;6.47;95.76;100080.56;5027494;28;20105;-73
2023/01/08 06:16:12;;;;;;;5.90;1.40;;;;;;;6.45;96.13;100094.19;5039043;28;20039;-71
2023/01/08 06:18:37;;;;;;;4.85;1.10;;;;;;;6.41;96.04;100091.78;5044527;28;20448;-72
2023/01/08 06:21:04;;;;;;;3.95;1.15;;;;;;;6.35;95.89;100085.84;5046783;28;20033;-71
2023/01/08 06:23:30;;;;;;;4.28;1.00;;;;;;;6.33;96.16;100095.84;5042680;28;20134;-73
2023/01/08 06:25:57;;;;;;;5.35;1.25;;;;;;;6.28;96.67;100092.59;5027945;28;20041;-71
2023/01/08 06:28:23;;;;;;;4.97;1.10;;;;;;;6.20;96.79;100097.66;5027035;28;20515;-71
2023/01/08 06:30:49;;;;;;;4.60;1.38;;;;;;;6.14;96.75;100100.75;5027840;28;20053;-70
2023/01/08 06:33:14;;;;;;;2.55;1.05;;;;;;;6.07;97.31;100104.84;5033161;28;20021;-71
2023/01/08 06:35:40;;;;;;;2.75;1.30;;;;;;;6.00;97.37;100100.81;5026394;28;20045;-71
2023/01/08 06:38:05;;;;;;;4.97;1.20;;;;;;;5.95;97.57;100102.94;5027287;28;20424;-71
2023/01/08 06:40:30;;;;;;;6.05;1.30;;;;;;;5.91;97.27;100110.34;5027020;28;20060;-71
2023/01/08 06:43:01;;;;;;;5.65;1.92;;;;;;;5.87;97.95;100122.28;5033242;28;20045;-71
2023/01/08 06:45:26;;;;;;;4.30;1.23;;;;;;;5.81;97.54;100118.16;5037385;28;20443;-71
2023/01/08 06:47:51;;;;;;;3.88;1.20;;;;;;;5.78;97.68;100117.47;5027108;28;20093;-71
2023/01/08 06:50:17;;;;;;;5.20;1.30;;;;;;;5.74;97.65;100122.22;5025357;28;20091;-71
2023/01/08 06:52:42;;;;;;;5.53;1.40;;;;;;;5.69;97.69;100113.56;5026544;28;20337;-73
2023/01/08 06:55:08;;;;;;;3.30;1.80;;;;;;;5.63;98.00;100116.63;5026875;28;20036;-71
2023/01/08 06:57:33;;;;;;;4.30;1.23;;;;;;;5.61;97.54;100122.16;5027102;28;20109;-73
2023/01/08 06:59:59;;;;;;;2.50;1.20;;;;;;;5.60;97.87;100119.56;5024963;28;20033;-75
2023/01/08 07:02:24;;;;;;;4.75;1.40;;;;;;;5.58;97.68;100119.63;5026090;28;20033;-71
2023/01/08 07:04:49;;;;;;;6.82;1.42;;;;;;;5.56;98.05;100120.72;5025175;28;20116;-71
2023/01/08 07:07:15;;;;;;;5.85;1.30;;;;;;;5.56;98.38;100116.19;5026311;28;20457;-71
2023/01/08 07:09:41;;;;;;;10.40;1.90;;;;;;;5.56;98.14;100118.00;5025312;28;20041;-71
2023/01/08 07:12:12;;;;;;;3.80;1.65;;;;;;;5.54;98.12;100125.31;5026241;28;20095;-71
2023/01/08 07:14:38;;;;;;;6.20;1.67;;;;;;;5.56;98.23;100116.19;5024792;28;20036;-71
2023/01/08 07:17:03;;;;;;;16.48;2.65;;;;;;;5.54;98.11;100107.28;5025121;28;20045;-71
2023/01/08 07:19:30;;;;;;;4.55;1.90;;;;;;;5.58;98.05;100103.44;5026627;28;20084;-71
2023/01/08 07:21:55;;;;;;;5.90;1.77;;;;;;;5.60;98.44;100101.53;5026917;28;20075;-71
2023/01/08 07:24:20;;;;;;;8.18;2.00;;;;;;;5.56;98.09;100099.97;5030631;28;20041;-71
2023/01/08 07:26:46;;;;;;;6.75;1.58;;;;;;;5.61;97.54;100105.09;5029607;28;20129;-71
2023/01/08 07:29:11;;;;;;;8.10;1.95;;;;;;;5.60;98.02;100098.84;5029720;28;20386;-71
2023/01/08 07:31:37;;;;;;;6.63;1.88;;;;;;;5.61;97.47;100097.84;5033580;28;20041;-71
2023/01/08 07:34:02;;;;;;;7.03;2.30;;;;;;;5.63;97.15;100108.53;5034934;28;20120;-71
2023/01/08 07:36:27;;;;;;;8.15;1.65;;;;;;;5.61;97.03;100111.34;5030609;28;20450;-72
2023/01/08 07:38:53;;;;;;;9.63;1.52;;;;;;;5.61;96.56;100118.56;5030434;28;20051;-71
2023/01/08 07:41:18;;;;;;;6.30;2.33;;;;;;;5.57;97.12;100109.81;5030401;28;20419;-71
2023/01/08 07:43:46;;;;;;;6.72;1.63;;;;;;;5.57;96.43;100122.44;5028289;28;20041;-72
2023/01/08 07:46:11;;;;;;;9.90;1.38;;;;;;;5.53;96.80;100110.97;5030195;28;20047;-71
2023/01/08 07:48:36;;;;;;;12.55;1.65;;;;;;;5.48;96.89;100099.59;5030016;28;20556;-71
2023/01/08 07:51:04;;;;;;;5.80;1.30;;;;;;;5.44;96.75;100102.59;5012116;28;20568;-71
2023/01/08 07:53:30;;;;;;;7.00;1.60;;;;;;;5.37;96.78;100102.13;5029181;28;20634;-71
2023/01/08 07:56:00;;;;;;;7.70;1.38;;;;;;;5.34;97.23;100108.56;5030453;28;20037;-71
2023/01/08 07:58:25;;;;;;;6.45;1.70;;;;;;;5.31;97.50;100099.78;5029243;28;20412;-70
2023/01/08 08:00:51;;;;;;;4.95;1.40;;;;;;;5.30;97.60;100098.94;5034682;28;20033;-71
2023/01/08 08:03:16;;;;;;;4.63;1.88;;;;;;;5.32;97.76;100098.84;5030073;28;20037;-71
2023/01/08 08:05:41;;;;;;;8.95;1.70;;;;;;;5.31;97.80;100099.78;5029597;28;20036;-71
2023/01/08 08:08:11;;;;;;;9.27;2.25;;;;;;;5.34;98.12;100100.47;5030227;28;20528;-71
2023/01/08 08:10:37;;;;;;;8.02;2.00;;;;;;;5.37;98.21;100091.34;5030192;28;21582;-71
2023/01/08 08:13:03;;;;;;;4.68;1.60;;;;;;;5.42;98.52;100085.66;5048337;28;20160;-71
2023/01/08 08:15:28;;;;;;;4.47;2.05;;;;;;;5.47;98.03;100081.69;5039520;28;20536;-71
2023/01/08 08:17:54;;;;;;;5.72;1.67;;;;;;;5.52;98.60;100062.50;5012650;28;20369;-72
2023/01/08 08:20:19;;;;;;;9.00;1.90;;;;;;;5.59;99.03;100075.47;5029373;28;20041;-71
2023/01/08 08:22:44;;;;;;;2.88;1.48;;;;;;;5.66;99.16;100056.22;5029435;28;20025;-71
2023/01/08 08:25:11;;;;;;;9.80;1.65;;;;;;;5.72;98.84;100053.13;5029525;28;20033;-71
2023/01/08 08:27:36;;;;;;;4.50;1.67;;;;;;;5.78;98.78;100060.81;5029519;28;20094;-71
2023/01/08 08:30:03;;;;;;;6.65;1.42;;;;;;;5.83;99.03;100056.00;5029531;28;20536;-71
2023/01/08 08:32:28;;;;;;;4.35;1.52;;;;;;;5.89;98.75;100059.16;5029714;28;20041;-71
2023/01/08 08:34:54;;;;;;;6.80;1.88;;;;;;;5.94;99.31;100058.88;5029683;28;20059;-70
2023/01/08 08:37:19;;;;;;;7.53;1.70;;;;;;;6.03;98.17;100060.13;5011198;28;20033;-72
2023/01/08 08:39:44;;;;;;;11.95;2.13;;;;;;;6.09;98.37;100065.09;5029151;28;20052;-71
2023/01/08 08:42:10;;;;;;;9.35;1.45;;;;;;;6.14;99.04;100057.56;5011140;28;20044;-72
2023/01/08 08:44:35;;;;;;;4.88;1.60;;;;;;;6.18;98.46;100059.09;5027592;28;20049;-74
2023/01/08 08:47:00;;;;;;;10.07;1.50;;;;;;;6.27;97.99;100063.00;5028498;28;20584;-72
2023/01/08 08:49:26;;;;;;;8.30;1.55;;;;;;;6.31;97.97;100061.84;5029796;28;20440;-71
2023/01/08 08:51:52;;;;;;;11.73;2.15;;;;;;;6.33;97.64;100058.03;5028884;28;20349;-71
2023/01/08 08:54:17;;;;;;;6.75;1.98;;;;;;;6.34;97.19;100057.09;5028643;28;20029;-72
2023/01/08 08:56:42;;;;;;;6.35;1.50;;;;;;;6.32;97.14;100048.22;5028868;28;20492;-71
2023/01/08 08:59:10;;;;;;;6.03;1.52;;;;;;;6.32;97.33;100050.91;5028438;28;20164;-71
2023/01/08 09:01:36;;;;;;;9.48;1.52;;;;;;;6.29;97.64;100042.16;5029756;28;20041;-71
2023/01/08 09:04:01;;;;;;;7.38;1.63;;;;;;;6.25;98.25;100041.50;5026837;28;20429;-71
2023/01/08 09:06:26;;;;;;;10.00;1.70;;;;;;;6.23;97.51;100038.03;5027931;28;20487;-71
2023/01/08 09:08:53;;;;;;;7.30;2.17;;;;;;;6.22;97.89;100046.25;5028853;28;20465;-70
2023/01/08 09:11:19;;;;;;;13.27;2.83;;;;;;;6.19;97.69;100050.00;5027374;28;20500;-71
2023/01/08 09:13:45;;;;;;;11.93;1.48;;;;;;;6.13;97.73;100045.03;5026929;28;20034;-71
2023/01/08 09:16:10;;;;;;;4.72;1.67;;;;;;;6.06;97.85;100041.88;5028750;28;20084;-70
2023/01/08 09:18:35;;;;;;;6.55;1.50;;;;;;;6.03;97.99;100046.63;5028537;28;20644;-72
2023/01/08 09:21:05;;;;;;;7.28;2.08;;;;;;;5.97;98.24;100047.91;5028012;28;20060;-71
2023/01/08 09:23:31;;;;;;;14.15;1.98;;;;;;;5.94;98.70;100052.63;5027151;28;20104;-72
2023/01/08 09:26:00;;;;;;;4.50;2.03;;;;;;;5.91;98.83;100047.38;5027168;28;20064;-71
2023/01/08 09:28:26;;;;;;;5.68;1.70;;;;;;;5.87;99.32;100044.91;5027492;28;20381;-71
2023/01/08 09:30:51;;;;;;;10.95;1.73;;;;;;;5.87;98.90;100042.22;5027799;28;20042;-71
2023/01/08 09:33:17;;;;;;;6.30;1.33;;;;;;;5.87;99.35;100042.22;5027039;28;20025;-71
2023/01/08 09:35:43;;;;;;;5.85;1.83;;;;;;;5.85;99.64;100035.16;5027613;28;20130;-71
2023/01/08 09:38:09;;;;;;;7.45;1.58;;;;;;;5.84;99.30;100028.91;5026815;28;20037;-71
2023/01/08 09:40:39;;;;;;;10.32;1.77;;;;;;;5.84;99.51;100028.03;5009711;28;20055;-71
2023/01/08 09:43:06;;;;;;;5.60;1.90;;;;;;;5.84;99.40;100030.72;5028128;28;20137;-73
2023/01/08 09:45:38;;;;;;;6.88;1.50;;;;;;;5.83;99.51;100024.47;5027021;28;20037;-71
2023/01/08 09:48:13;;;;;;;8.07;1.90;;;;;;;5.82;99.96;100020.03;5026656;28;20029;-71
2023/01/08 09:50:38;;;;;;;5.38;2.03;;;;;;;5.83;99.72;100023.63;5025978;28;20041;-71
2023/01/08 09:53:04;;;;;;;7.95;2.00;;;;;;;5.83;99.78;100024.47;5027758;28;20040;-71
2023/01/08 09:55:33;;;;;;;11.07;2.10;;;;;;;5.84;99.86;100022.63;5027814;28;20044;-72
2023/01/08 09:57:59;;;;;;;5.50;1.85;;;;;;;5.82;99.79;100022.72;5028177;28;20091;-71
2023/01/08 10:00:29;;;;;;;9.02;2.17;;;;;;;5.83;100.00;100021.78;5033307;28;20640;-73
2023/01/08 10:02:55;;;;;;;9.70;1.80;;;;;;;5.84;100.00;100018.09;5042460;28;20049;-70
2023/01/08 10:05:21;;;;;;;8.45;1.98;;;;;;;5.85;100.00;100014.44;5027063;28;20037;-72
2023/01/08 10:07:46;;;;;;;5.28;1.98;;;;;;;5.87;100.00;100014.31;5027626;28;20076;-71
2023/01/08 10:10:26;;;;;;;3.03;1.60;;;;;;;5.88;100.00;100014.25;5026291;28;20041;-71
2023/01/08 10:12:53;;;;;;;8.52;1.70;;;;;;;5.90;100.00;100011.44;5042712;28;20033;-71
2023/01/08 10:15:20;;;;;;;3.92;1.65;;;;;;;5.92;100.00;100004.09;5039870;28;20410;-73
2023/01/08 10:17:54;;;;;;;7.30;1.70;;;;;;;6.01;100.00;100005.34;5027404;28;20084;-71
2023/01/08 10:20:23;;;;;;;5.35;1.52;;;;;;;6.07;100.00;99997.72;5026778;28;20055;-72
2023/01/08 10:22:52;;;;;;;3.08;1.50;;;;;;;6.14;100.00;99992.75;5025949;28;20052;-71
2023/01/08 10:25:21;;;;;;;8.10;1.80;;;;;;;6.22;100.00;99997.63;5027188;28;20388;-71
2023/01/08 10:27:53;;;;;;;10.45;1.95;;;;;;;6.29;100.00;99993.53;5025866;28;20130;-71
2023/01/08 10:30:22;;;;;;;4.28;1.55;;;;;;;6.33;100.00;99986.94;5026599;28;20083;-72
2023/01/08 10:32:51;;;;;;;8.13;1.60;;;;;;;6.41;100.00;99981.88;5035658;28;20394;-72
2023/01/08 10:35:20;;;;;;;9.25;1.67;;;;;;;6.44;100.00;99984.38;5026886;28;20172;-71
2023/01/08 10:37:46;;;;;;;4.45;1.20;;;;;;;6.49;100.00;99982.22;5027331;28;20029;-71
2023/01/08 10:40:24;;;;;;;4.55;1.73;;;;;;;6.57;100.00;99982.53;5026349;28;20081;-70
2023/01/08 10:42:50;;;;;;;4.60;1.55;;;;;;;6.66;100.00;99972.94;5025398;28;20128;-71
2023/01/08 10:45:24;;;;;;;2.95;1.60;;;;;;;6.77;100.00;99974.91;5025335;28;20404;-71
2023/01/08 10:47:55;;;;;;;4.18;1.20;;;;;;;6.90;99.83;99962.22;5025601;28;20132;-71
2023/01/08 10:50:38;;;;;;;5.47;1.63;;;;;;;7.03;99.17;99965.75;5026857;28;20530;-71
2023/01/08 10:53:19;;;;;;;2.85;1.10;;;;;;;7.11;98.54;99966.09;5025641;28;20100;-74
2023/01/08 10:55:55;;;;;;;5.15;2.10;;;;;;;7.22;98.89;99954.47;5026976;28;20073;-72
2023/01/08 10:58:20;;;;;;;4.40;1.10;;;;;;;7.36;97.31;99956.19;5025749;28;20484;-71
2023/01/08 11:00:46;;;;;;;3.13;1.30;;;;;;;7.47;97.23;99947.28;5026480;28;20060;-71
2023/01/08 11:03:26;;;;;;;4.18;0.90;;;;;;;7.57;96.21;99951.91;5026898;28;20120;-71
2023/01/08 11:05:51;;;;;;;3.72;1.02;;;;;;;7.64;96.27;99939.63;5024794;28;20407;-71
2023/01/08 11:08:18;;;;;;;2.72;0.90;;;;;;;7.74;94.52;99937.09;5026708;28;20068;-71
2023/01/08 11:10:56;;;;;;;2.15;1.00;;;;;;;7.89;95.10;99933.22;5026466;28;20030;-71
2023/01/08 11:13:22;;;;;;;2.65;0.80;;;;;;;8.00;94.75;99935.13;5026731;28;20041;-71
2023/01/08 11:16:01;;;;;;;1.67;1.10;;;;;;;8.13;94.43;99933.19;5026728;28;20021;-71
2023/01/08 11:18:27;;;;;;;2.40;1.40;;;;;;;8.23;92.65;99933.34;5034606;28;20047;-71
2023/01/08 11:21:05;;;;;;;2.22;0.93;;;;;;;8.31;91.21;99930.91;5044389;28;20387;-71
2023/01/08 11:23:30;;;;;;;1.00;0.68;;;;;;;8.36;91.87;99926.03;5046728;28;20128;-71
2023/01/08 11:26:15;;;;;;;1.52;0.80;;;;;;;8.39;90.48;99906.84;5036974;28;20433;-71
2023/01/08 11:28:56;;;;;;;1.58;0.82;;;;;;;8.48;91.20;99912.50;5025992;28;20043;-72
2023/01/08 11:31:32;;;;;;;1.40;0.68;;;;;;;8.55;89.73;99916.44;5026702;28;20124;-71
2023/01/08 11:34:14;;;;;;;0.68;0.60;;;;;;;8.61;89.24;99899.69;5026807;28;20403;-70